Time;durP1;ratioP1;P1;durP2;ratioP2;P2;SDS_P1;SDS_P2;PMS_P1;PMS_P2;Temp;Humidity;BMP_temperature;BMP_pressure;BME280_temperature;BME280_humidity;BME280_pressure;Samples;Min_cycle;Max_cycle;Signal;HPM_P1;HPM_P2
2021/03/28 00:01:05;;;;;;;11.27;3.70;;;5.10;99.90;;;;;;5017356;28;20587;-64
2021/03/28 00:03:46;;;;;;;11.27;3.67;;;5.10;99.90;;;;;;5034326;28;20551;-64
2021/03/28 00:06:28;;;;;;;7.50;3.03;;;5.20;99.90;;;;;;5028474;28;20533;-63
2021/03/28 00:09:08;;;;;;;9.73;3.67;;;5.30;99.90;;;;;;5018836;28;20570;-64
2021/03/28 00:11:49;;;;;;;11.10;3.10;;;5.50;99.90;;;;;;5034109;28;20172;-63
2021/03/28 00:14:15;;;;;;;9.87;3.20;;;5.60;99.90;;;;;;5019385;28;20631;-64
2021/03/28 00:16:47;;;;;;;13.77;3.43;;;5.70;99.90;;;;;;5014676;28;20199;-63
2021/03/28 00:19:32;;;;;;;9.17;3.47;;;5.80;99.90;;;;;;5027732;28;20589;-64
2021/03/28 00:22:01;;;;;;;10.33;3.60;;;5.90;99.90;;;;;;5033826;28;20167;-63
2021/03/28 00:24:31;;;;;;;6.67;3.07;;;6.10;99.90;;;;;;5018650;28;20290;-64
2021/03/28 00:27:19;;;;;;;10.47;3.93;;;6.20;99.90;;;;;;5014345;28;20602;-63
2021/03/28 00:29:50;;;;;;;9.87;3.57;;;6.30;99.90;;;;;;5030883;28;20175;-64
2021/03/28 00:32:21;;;;;;;10.63;3.73;;;6.40;99.90;;;;;;5032569;28;20171;-64
2021/03/28 00:34:52;;;;;;;9.37;3.30;;;6.40;99.90;;;;;;5030649;28;20273;-63
2021/03/28 00:37:27;;;;;;;9.03;3.50;;;6.50;99.90;;;;;;5029421;28;20190;-64
2021/03/28 00:39:59;;;;;;;7.27;2.83;;;6.50;99.90;;;;;;5033640;28;20163;-64
2021/03/28 00:42:38;;;;;;;8.63;2.90;;;6.60;99.90;;;;;;5026752;28;20267;-65
2021/03/28 00:45:24;;;;;;;9.83;3.13;;;6.60;99.90;;;;;;5013799;28;20203;-63
2021/03/28 00:48:07;;;;;;;8.20;3.20;;;6.70;99.90;;;;;;5023231;28;20183;-64
2021/03/28 00:50:41;;;;;;;8.93;2.97;;;6.70;99.90;;;;;;5033351;28;20163;-62
2021/03/28 00:53:11;;;;;;;7.70;3.23;;;6.70;99.90;;;;;;5021728;28;20568;-64
2021/03/28 00:55:54;;;;;;;13.60;2.73;;;6.70;99.90;;;;;;5013955;28;20230;-63
2021/03/28 00:58:25;;;;;;;8.43;3.10;;;6.70;99.90;;;;;;5025878;28;20309;-63
2021/03/28 01:01:18;;;;;;;8.83;3.10;;;6.70;99.90;;;;;;5033247;28;20172;-62
2021/03/28 01:04:11;;;;;;;16.70;3.90;;;6.70;99.90;;;;;;5018640;28;20571;-63
2021/03/28 01:06:49;;;;;;;5.50;3.10;;;6.80;99.90;;;;;;5013560;28;20214;-64
2021/03/28 01:10:11;;;;;;;9.83;3.30;;;6.80;99.90;;;;;;5032325;28;20179;-64
2021/03/28 01:12:51;;;;;;;6.87;2.53;;;6.80;99.90;;;;;;5027724;28;20177;-64
2021/03/28 01:15:54;;;;;;;13.53;2.93;;;6.80;99.90;;;;;;5013374;28;20180;-63
2021/03/28 01:18:37;;;;;;;10.83;2.53;;;6.80;99.90;;;;;;5023376;28;20187;-64
2021/03/28 01:21:09;;;;;;;8.77;2.80;;;6.80;99.90;;;;;;5032684;28;20517;-63
2021/03/28 01:23:41;;;;;;;12.53;3.30;;;6.90;99.90;;;;;;5020648;28;20200;-64
2021/03/28 01:26:28;;;;;;;10.03;2.87;;;6.90;99.90;;;;;;5013098;28;20164;-64
2021/03/28 01:29:01;;;;;;;8.87;2.83;;;6.90;99.90;;;;;;5027168;28;20211;-64
2021/03/28 01:31:47;;;;;;;7.73;2.80;;;6.90;99.90;;;;;;5031802;28;20243;-64
2021/03/28 01:34:23;;;;;;;6.37;2.53;;;6.90;99.90;;;;;;5012847;28;20275;-63
2021/03/28 01:37:13;;;;;;;6.67;3.00;;;6.90;99.90;;;;;;5015747;28;20186;-63
2021/03/28 01:39:46;;;;;;;9.97;2.77;;;7.00;99.90;;;;;;5032838;28;20167;-63
2021/03/28 01:42:26;;;;;;;6.63;2.60;;;7.00;99.90;;;;;;5026751;28;20188;-63
2021/03/28 01:44:57;;;;;;;7.53;2.73;;;7.10;99.90;;;;;;5012597;28;20230;-61
2021/03/28 01:47:59;;;;;;;9.33;2.87;;;7.10;99.90;;;;;;5019150;28;20653;-64
2021/03/28 01:50:33;;;;;;;10.00;3.40;;;7.10;99.90;;;;;;5032119;28;20163;-63
2021/03/28 01:53:18;;;;;;;8.27;2.60;;;7.10;99.90;;;;;;5021154;28;20199;-63
2021/03/28 01:56:15;;;;;;;6.23;2.87;;;7.00;99.90;;;;;;5013070;28;20171;-63
2021/03/28 01:58:57;;;;;;;7.63;2.77;;;7.00;99.90;;;;;;5028681;28;20190;-64
2021/03/28 02:01:58;;;;;;;6.67;3.30;;;6.90;99.90;;;;;;5016582;28;20195;-63
2021/03/28 02:04:44;;;;;;;7.03;2.77;;;6.90;99.90;;;;;;5004686;28;20231;-63
2021/03/28 02:07:13;;;;;;;6.40;2.63;;;6.80;99.90;;;;;;5012457;28;20263;-63
2021/03/28 02:10:13;;;;;;;8.30;3.10;;;6.70;99.90;;;;;;5011844;28;20176;-64
2021/03/28 02:12:47;;;;;;;10.90;3.73;;;6.70;99.90;;;;;;5012252;28;20176;-63
2021/03/28 02:15:21;;;;;;;9.27;2.53;;;6.70;99.90;;;;;;5015948;28;20183;-62
2021/03/28 02:18:09;;;;;;;7.13;2.40;;;6.70;99.90;;;;;;5032064;28;20702;-65
2021/03/28 02:20:40;;;;;;;9.33;2.77;;;6.70;99.90;;;;;;5025036;28;20739;-63
2021/03/28 02:23:21;;;;;;;7.63;2.67;;;6.60;99.90;;;;;;5012140;28;20203;-64
2021/03/28 02:25:47;;;;;;;15.10;2.90;;;6.40;99.90;;;;;;5019445;28;20207;-63
2021/03/28 02:28:51;;;;;;;6.37;2.30;;;6.30;99.90;;;;;;5031761;28;20517;-64
2021/03/28 02:31:45;;;;;;;5.30;2.57;;;6.20;99.90;;;;;;5029846;28;20193;-63
2021/03/28 02:34:20;;;;;;;8.53;2.90;;;6.00;99.90;;;;;;5031697;28;20195;-63
2021/03/28 02:37:14;;;;;;;7.73;2.90;;;5.90;99.90;;;;;;5017168;28;20187;-65
2021/03/28 02:40:03;;;;;;;5.63;2.50;;;5.80;99.90;;;;;;5012011;28;20177;-62
2021/03/28 02:42:52;;;;;;;6.10;2.83;;;5.70;99.90;;;;;;5011659;28;20200;-63
2021/03/28 02:45:24;;;;;;;4.53;2.57;;;5.60;99.90;;;;;;5012866;28;20202;-63
2021/03/28 02:48:29;;;;;;;5.63;2.50;;;5.60;99.90;;;;;;5031687;28;20217;-63
2021/03/28 02:51:22;;;;;;;10.97;3.27;;;5.60;99.90;;;;;;5025091;28;20172;-63
2021/03/28 02:54:06;;;;;;;7.67;2.67;;;5.60;99.90;;;;;;5011873;28;20196;-63
2021/03/28 02:57:09;;;;;;;8.70;3.20;;;5.60;99.90;;;;;;5021792;28;20187;-63
2021/03/28 02:59:53;;;;;;;7.20;2.70;;;5.60;99.90;;;;;;5021315;28;20207;-63
2021/03/28 03:02:36;;;;;;;8.13;2.40;;;5.60;99.90;;;;;;5011567;28;20172;-63
2021/03/28 03:05:05;;;;;;;9.73;3.23;;;5.50;99.90;;;;;;5070080;23;20253;-65
2021/03/28 03:07:52;;;;;;;8.67;2.67;;;5.50;99.90;;;;;;5053413;28;20182;-67
2021/03/28 03:10:27;;;;;;;7.50;2.87;;;5.50;99.90;;;;;;5053026;28;20178;-66
2021/03/28 03:13:35;;;;;;;6.23;3.03;;;5.40;99.90;;;;;;5053350;28;20177;-67
2021/03/28 03:16:07;;;;;;;7.37;2.73;;;5.40;99.90;;;;;;5033209;28;20195;-67
2021/03/28 03:18:59;;;;;;;9.40;3.07;;;5.30;99.90;;;;;;5033394;28;20176;-66
2021/03/28 03:21:36;;;;;;;8.50;2.97;;;5.30;99.90;;;;;;5037131;28;20167;-68
2021/03/28 03:24:45;;;;;;;5.80;3.00;;;5.20;99.90;;;;;;5040450;28;20221;-65
2021/03/28 03:27:10;;;;;;;5.07;2.90;;;5.20;99.90;;;;;;5057260;28;20174;-68
2021/03/28 03:29:51;;;;;;;9.97;2.77;;;5.10;99.90;;;;;;5056989;28;20666;-66
2021/03/28 03:32:33;;;;;;;10.43;3.00;;;5.10;99.90;;;;;;5057114;28;20541;-67
2021/03/28 03:35:34;;;;;;;9.03;2.67;;;5.20;99.90;;;;;;5057195;28;20191;-68
2021/03/28 03:38:27;;;;;;;7.40;3.00;;;5.20;99.90;;;;;;5057349;28;20171;-64
2021/03/28 03:41:19;;;;;;;11.67;3.60;;;5.20;99.90;;;;;;5056553;28;20175;-67
2021/03/28 03:43:45;;;;;;;7.47;2.83;;;5.20;99.90;;;;;;5056940;28;20226;-66
2021/03/28 03:46:35;;;;;;;4.37;2.60;;;5.20;99.90;;;;;;5056622;28;20197;-68
2021/03/28 03:49:22;;;;;;;7.20;2.60;;;5.30;99.90;;;;;;5056804;28;20261;-66
2021/03/28 03:52:21;;;;;;;8.03;2.43;;;5.30;99.90;;;;;;5054570;28;20206;-62
2021/03/28 03:55:10;;;;;;;6.70;2.83;;;5.40;99.90;;;;;;5055055;28;20218;-63
2021/03/28 03:57:53;;;;;;;10.63;2.67;;;5.40;99.90;;;;;;5055228;28;20214;-63
2021/03/28 04:00:36;;;;;;;7.27;2.73;;;5.40;99.90;;;;;;5053984;28;20179;-62
2021/03/28 04:03:02;;;;;;;5.53;2.93;;;5.40;99.90;;;;;;5054282;28;20664;-63
2021/03/28 04:05:46;;;;;;;7.33;3.30;;;5.40;99.90;;;;;;5054144;28;20242;-63
2021/03/28 04:08:49;;;;;;;9.87;2.43;;;5.40;99.90;;;;;;5054380;28;20171;-63
2021/03/28 04:11:42;;;;;;;5.53;2.83;;;5.40;99.90;;;;;;5053904;28;20189;-65
2021/03/28 04:14:38;;;;;;;5.37;3.10;;;5.40;99.90;;;;;;5054161;28;20234;-63
2021/03/28 04:17:28;;;;;;;8.07;3.10;;;5.40;99.90;;;;;;5051055;28;20194;-63
2021/03/28 04:20:02;;;;;;;3.20;2.77;;;5.40;99.90;;;;;;5053701;28;20182;-62
2021/03/28 04:22:43;;;;;;;3.40;2.30;;;5.40;99.90;;;;;;5034122;28;20652;-62
2021/03/28 04:25:52;;;;;;;4.27;2.70;;;5.40;99.90;;;;;;5036422;28;20254;-63
2021/03/28 04:28:32;;;;;;;6.30;2.57;;;5.40;99.90;;;;;;5054102;28;20600;-64
2021/03/28 04:30:58;;;;;;;6.93;2.70;;;5.40;99.90;;;;;;5052913;28;20210;-63
2021/03/28 04:33:50;;;;;;;6.20;2.77;;;5.40;99.90;;;;;;5053947;28;20218;-62
2021/03/28 04:36:39;;;;;;;5.30;2.33;;;5.40;99.90;;;;;;5052502;28;20198;-64
2021/03/28 04:39:23;;;;;;;5.43;2.63;;;5.40;99.90;;;;;;5053657;28;20174;-63
2021/03/28 04:42:08;;;;;;;5.67;3.10;;;5.40;99.90;;;;;;5053515;28;20534;-64
2021/03/28 04:45:06;;;;;;;9.47;2.77;;;5.50;99.90;;;;;;5053185;28;20619;-62
2021/03/28 04:47:58;;;;;;;8.87;3.03;;;5.60;99.90;;;;;;5053663;28;20179;-63
2021/03/28 04:51:12;;;;;;;7.80;2.57;;;5.60;99.90;;;;;;5053070;28;20181;-61
2021/03/28 04:53:56;;;;;;;3.10;2.50;;;5.70;99.90;;;;;;5030810;28;20238;-64
2021/03/28 04:56:39;;;;;;;8.00;2.47;;;5.70;99.90;;;;;;5031224;28;20175;-64
2021/03/28 04:59:24;;;;;;;6.23;3.07;;;5.70;99.90;;;;;;5042121;28;20187;-64
2021/03/28 05:02:17;;;;;;;12.50;2.87;;;5.80;99.90;;;;;;5052936;28;20170;-63
2021/03/28 05:05:27;;;;;;;6.10;2.50;;;5.80;99.90;;;;;;5052871;28;20259;-63
2021/03/28 05:08:30;;;;;;;7.33;2.43;;;5.80;99.90;;;;;;5047820;28;20186;-63
2021/03/28 05:11:40;;;;;;;4.80;2.33;;;5.90;99.90;;;;;;5032980;28;20183;-64
2021/03/28 05:14:39;;;;;;;11.63;3.93;;;5.90;99.90;;;;;;5042891;28;20600;-63
2021/03/28 05:17:52;;;;;;;2.70;2.50;;;6.00;99.90;;;;;;5053088;28;20167;-63
2021/03/28 05:20:36;;;;;;;7.20;2.40;;;6.00;99.90;;;;;;5052785;28;20226;-63
2021/03/28 05:23:29;;;;;;;3.33;2.40;;;6.10;99.90;;;;;;5052865;28;20186;-64
2021/03/28 05:26:32;;;;;;;5.10;2.70;;;6.10;99.90;;;;;;5032832;28;20207;-63
2021/03/28 05:29:21;;;;;;;4.93;2.40;;;6.10;99.90;;;;;;5042710;28;20677;-63
2021/03/28 05:32:28;;;;;;;4.10;2.57;;;6.10;99.90;;;;;;5052567;28;20167;-63
2021/03/28 05:35:23;;;;;;;5.97;2.40;;;6.20;99.90;;;;;;5032627;28;20306;-63
2021/03/28 05:38:27;;;;;;;5.93;2.10;;;6.10;99.90;;;;;;5048571;28;20186;-64
2021/03/28 05:41:23;;;;;;;5.53;2.63;;;6.10;99.90;;;;;;5023870;28;20274;-62
2021/03/28 05:44:13;;;;;;;3.13;2.13;;;6.10;99.90;;;;;;5038251;28;20205;-64
2021/03/28 05:46:57;;;;;;;13.83;3.27;;;6.20;99.90;;;;;;5052225;28;20186;-63
2021/03/28 05:49:32;;;;;;;5.10;2.50;;;6.20;99.90;;;;;;5052215;28;20170;-64
2021/03/28 05:52:22;;;;;;;8.57;2.70;;;6.20;99.90;;;;;;5052168;28;20166;-64
2021/03/28 05:55:00;;;;;;;6.50;2.43;;;6.30;99.90;;;;;;5052091;28;20252;-63
2021/03/28 05:57:44;;;;;;;6.30;2.60;;;6.30;99.90;;;;;;5052186;28;20269;-63
2021/03/28 06:00:25;;;;;;;7.43;2.60;;;6.40;99.90;;;;;;5052022;28;20170;-63
2021/03/28 06:02:57;;;;;;;4.67;2.70;;;6.40;99.90;;;;;;5052117;28;20186;-63
2021/03/28 06:05:47;;;;;;;8.33;2.70;;;6.50;99.90;;;;;;5052216;28;20210;-63
2021/03/28 06:08:38;;;;;;;6.33;2.87;;;6.50;99.90;;;;;;5051895;28;20225;-63
2021/03/28 06:11:35;;;;;;;3.33;2.50;;;6.50;99.90;;;;;;5051694;28;20181;-64
2021/03/28 06:14:31;;;;;;;2.90;2.37;;;6.60;99.90;;;;;;5051866;28;20199;-63
2021/03/28 06:17:22;;;;;;;7.20;2.70;;;6.60;99.90;;;;;;5052251;28;20643;-62
2021/03/28 06:19:51;;;;;;;5.90;2.60;;;6.70;99.90;;;;;;5051703;28;20282;-63
2021/03/28 06:22:23;;;;;;;7.00;2.83;;;6.80;99.90;;;;;;5051592;28;20245;-63
2021/03/28 06:25:00;;;;;;;7.67;2.50;;;6.90;99.90;;;;;;5049133;28;20214;-63
2021/03/28 06:28:03;;;;;;;6.43;2.30;;;7.00;99.90;;;;;;5051831;28;20182;-64
2021/03/28 06:30:35;;;;;;;5.17;2.33;;;7.20;99.90;;;;;;5031463;28;20179;-64
2021/03/28 06:33:40;;;;;;;7.13;2.30;;;7.30;99.90;;;;;;5031962;28;20168;-64
2021/03/28 06:36:31;;;;;;;6.13;2.30;;;7.40;99.90;;;;;;5047458;28;20186;-64
2021/03/28 06:39:41;;;;;;;4.70;2.60;;;7.50;99.90;;;;;;5051224;28;20179;-64
2021/03/28 06:42:45;;;;;;;5.63;2.60;;;7.60;99.90;;;;;;5042791;28;20269;-62
2021/03/28 06:45:39;;;;;;;7.87;2.50;;;7.70;99.90;;;;;;5048035;28;20218;-63
2021/03/28 06:48:48;;;;;;;7.93;2.33;;;7.80;99.90;;;;;;5051267;28;20171;-63
2021/03/28 06:51:41;;;;;;;4.80;2.50;;;7.90;99.90;;;;;;5050953;28;20174;-63
2021/03/28 06:54:49;;;;;;;6.20;2.60;;;8.00;99.90;;;;;;5050404;28;20194;-63
2021/03/28 06:57:26;;;;;;;5.30;2.60;;;8.00;99.90;;;;;;5040998;28;20194;-63
2021/03/28 07:00:29;;;;;;;5.80;2.40;;;8.10;99.90;;;;;;5031121;28;20179;-63
2021/03/28 07:03:13;;;;;;;5.97;2.30;;;8.20;99.90;;;;;;5035503;28;20186;-64
2021/03/28 07:05:51;;;;;;;2.63;2.03;;;8.30;99.90;;;;;;5051219;28;20202;-64
2021/03/28 07:08:29;;;;;;;4.00;1.90;;;8.40;99.90;;;;;;5046351;28;20543;-63
2021/03/28 07:11:21;;;;;;;3.47;2.10;;;8.50;99.90;;;;;;5050793;28;20221;-64
2021/03/28 07:14:07;;;;;;;5.27;2.33;;;8.60;99.90;;;;;;5050034;28;20194;-64
2021/03/28 07:16:54;;;;;;;8.43;2.20;;;8.70;99.90;;;;;;5051221;28;20285;-63
2021/03/28 07:19:52;;;;;;;9.20;2.70;;;8.90;99.90;;;;;;5031261;28;20171;-64
2021/03/28 07:22:35;;;;;;;5.43;2.80;;;8.90;99.90;;;;;;5047109;28;20320;-64
2021/03/28 07:25:27;;;;;;;4.37;2.03;;;9.00;99.90;;;;;;5051241;28;20202;-63
2021/03/28 07:28:05;;;;;;;8.03;2.53;;;9.20;99.90;;;;;;5050590;28;20247;-63
2021/03/28 07:30:39;;;;;;;7.73;3.23;;;9.20;99.90;;;;;;5050590;28;20170;-63
2021/03/28 07:33:26;;;;;;;5.10;2.77;;;9.30;99.90;;;;;;5050812;28;20239;-63
2021/03/28 07:36:10;;;;;;;5.20;2.30;;;9.30;99.90;;;;;;5050881;28;20171;-63
2021/03/28 07:38:54;;;;;;;4.10;2.30;;;9.30;99.90;;;;;;5050819;28;20654;-63
2021/03/28 07:41:48;;;;;;;3.90;2.50;;;9.30;99.90;;;;;;5050533;28;20182;-63
2021/03/28 07:44:22;;;;;;;6.67;2.67;;;9.50;99.90;;;;;;5050726;28;20215;-64
2021/03/28 07:47:07;;;;;;;7.43;2.57;;;9.60;99.90;;;;;;5050761;28;20202;-65
2021/03/28 07:49:41;;;;;;;4.20;1.90;;;9.80;99.90;;;;;;5050626;28;20178;-63
2021/03/28 07:52:44;;;;;;;6.27;2.10;;;9.90;99.90;;;;;;5050868;28;20257;-64
2021/03/28 07:55:19;;;;;;;7.37;2.27;;;10.10;99.90;;;;;;5050382;28;20228;-63
2021/03/28 07:58:08;;;;;;;9.53;2.40;;;10.30;99.90;;;;;;5050844;28;20167;-64
2021/03/28 08:00:52;;;;;;;3.27;2.00;;;10.50;99.90;;;;;;5050095;28;20269;-64
2021/03/28 08:03:58;;;;;;;10.97;3.03;;;10.70;99.90;;;;;;5050636;28;20281;-63
2021/03/28 08:06:51;;;;;;;9.50;3.00;;;10.80;99.90;;;;;;5031921;28;20229;-64
2021/03/28 08:09:41;;;;;;;6.30;2.60;;;10.90;99.90;;;;;;5051116;28;20553;-64
2021/03/28 08:12:29;;;;;;;6.80;3.00;;;11.10;99.90;;;;;;5053057;28;20207;-63
2021/03/28 08:15:31;;;;;;;3.63;2.30;;;11.30;99.90;;;;;;5034032;28;20508;-64
2021/03/28 08:18:12;;;;;;;5.97;2.37;;;11.50;99.90;;;;;;5044450;28;20178;-64
2021/03/28 08:21:08;;;;;;;11.37;2.87;;;11.90;99.90;;;;;;5053793;28;20225;-64
2021/03/28 08:24:11;;;;;;;5.13;2.60;;;12.10;99.90;;;;;;5053744;28;20210;-64
2021/03/28 08:26:45;;;;;;;6.93;2.63;;;12.50;99.90;;;;;;5053726;28;20708;-64
2021/03/28 08:29:48;;;;;;;5.80;2.40;;;13.10;99.90;;;;;;5053631;28;20182;-64
2021/03/28 08:32:27;;;;;;;7.20;3.13;;;13.40;99.90;;;;;;5053802;28;20551;-64
2021/03/28 08:35:19;;;;;;;6.97;2.40;;;13.80;99.90;;;;;;5054066;28;20193;-65
2021/03/28 08:38:16;;;;;;;8.20;2.27;;;14.40;99.90;;;;;;5053441;28;20174;-64
2021/03/28 08:41:10;;;;;;;6.63;2.30;;;14.90;99.90;;;;;;5053378;28;20213;-64
2021/03/28 08:43:54;;;;;;;5.13;2.57;;;15.30;99.90;;;;;;5053489;28;20187;-63
2021/03/28 08:46:39;;;;;;;5.57;2.30;;;15.40;99.90;;;;;;5053304;28;20178;-65
2021/03/28 08:49:14;;;;;;;8.63;2.23;;;15.70;99.90;;;;;;5053654;28;20182;-64
2021/03/28 08:52:12;;;;;;;6.53;2.53;;;15.50;99.90;;;;;;5052954;28;20179;-64
2021/03/28 08:55:07;;;;;;;5.13;2.57;;;15.80;99.90;;;;;;5053261;28;20186;-64
2021/03/28 08:58:01;;;;;;;6.97;2.03;;;15.80;99.90;;;;;;5022151;28;20286;-64
2021/03/28 09:00:40;;;;;;;7.47;2.87;;;15.60;99.90;;;;;;5036252;28;20190;-64
2021/03/28 09:03:11;;;;;;;7.07;2.43;;;15.40;99.90;;;;;;5053576;28;20167;-66
2021/03/28 09:06:07;;;;;;;5.70;2.17;;;15.60;99.90;;;;;;5052889;28;20210;-65
2021/03/28 09:08:36;;;;;;;7.37;2.50;;;15.40;99.90;;;;;;5053182;28;20167;-64
2021/03/28 09:11:32;;;;;;;8.33;3.03;;;15.50;99.90;;;;;;5052398;28;20203;-65
2021/03/28 09:14:32;;;;;;;10.17;2.73;;;15.80;99.90;;;;;;5051560;28;20643;-65
2021/03/28 09:17:21;;;;;;;2.80;2.10;;;16.00;99.90;;;;;;5052498;28;20170;-65
2021/03/28 09:20:09;;;;;;;10.73;3.17;;;16.20;99.90;;;;;;5052600;28;20178;-64
2021/03/28 09:23:01;;;;;;;6.87;2.37;;;15.80;99.90;;;;;;5052712;28;20283;-65
2021/03/28 09:25:50;;;;;;;5.23;2.80;;;15.30;99.90;;;;;;5053030;28;20228;-63
2021/03/28 09:28:21;;;;;;;8.47;2.43;;;14.90;99.90;;;;;;5049237;28;20228;-65
2021/03/28 09:31:26;;;;;;;4.97;2.20;;;14.80;99.90;;;;;;5052395;28;20171;-65
2021/03/28 09:34:03;;;;;;;7.70;2.10;;;14.90;99.90;;;;;;5047837;28;20718;-64
2021/03/28 09:36:39;;;;;;;7.73;2.53;;;15.00;99.90;;;;;;5052377;28;20174;-65
2021/03/28 09:39:37;;;;;;;8.90;2.60;;;15.30;99.90;;;;;;5052292;28;20183;-65
2021/03/28 09:42:36;;;;;;;9.50;3.77;;;15.90;99.90;;;;;;5051802;28;20202;-64
2021/03/28 09:45:23;;;;;;;8.77;2.33;;;16.20;99.90;;;;;;5050875;28;20202;-65
2021/03/28 09:48:07;;;;;;;3.07;1.73;;;16.00;99.90;;;;;;5052218;28;20530;-65
2021/03/28 09:51:04;;;;;;;4.00;2.13;;;15.90;99.90;;;;;;5052113;28;20167;-65
2021/03/28 09:53:50;;;;;;;9.07;2.33;;;16.30;99.90;;;;;;5052181;28;20191;-64
2021/03/28 09:56:22;;;;;;;6.07;2.13;;;16.60;99.90;;;;;;5051981;28;20221;-65
2021/03/28 09:59:24;;;;;;;9.27;2.20;;;16.80;99.90;;;;;;5051935;28;20210;-64
2021/03/28 10:02:11;;;;;;;4.03;1.97;;;16.60;99.90;;;;;;5051662;28;20175;-64
2021/03/28 10:05:08;;;;;;;4.17;1.83;;;16.50;99.90;;;;;;5051782;28;20206;-65
2021/03/28 10:07:48;;;;;;;4.73;1.90;;;16.60;99.90;;;;;;5052153;28;20186;-65
2021/03/28 10:10:45;;;;;;;9.37;2.27;;;16.80;99.90;;;;;;5051285;28;20170;-65
2021/03/28 10:13:35;;;;;;;6.37;1.97;;;16.60;99.90;;;;;;5032351;28;20191;-65
2021/03/28 10:16:09;;;;;;;3.27;1.87;;;16.90;99.90;;;;;;5051544;28;20171;-65
2021/03/28 10:18:59;;;;;;;5.20;2.30;;;17.10;99.90;;;;;;5051299;28;20170;-65
2021/03/28 10:21:49;;;;;;;7.93;2.40;;;17.30;99.90;;;;;;5051369;28;20186;-64
2021/03/28 10:24:24;;;;;;;11.97;2.23;;;17.30;99.90;;;;;;5051376;28;20213;-64
2021/03/28 10:27:15;;;;;;;11.63;2.77;;;17.00;99.90;;;;;;5050912;28;20181;-65
2021/03/28 10:30:01;;;;;;;6.73;2.37;;;16.80;99.90;;;;;;5050663;28;20178;-63
2021/03/28 10:32:39;;;;;;;8.73;2.13;;;17.00;99.90;;;;;;5051385;28;20235;-64
2021/03/28 10:35:23;;;;;;;4.60;1.77;;;17.10;99.90;;;;;;5051047;28;20198;-65
2021/03/28 10:38:25;;;;;;;5.20;2.30;;;17.20;99.90;;;;;;5051514;28;20269;-65
2021/03/28 10:41:22;;;;;;;10.20;2.20;;;17.20;99.90;;;;;;5050714;28;20177;-64
2021/03/28 10:43:48;;;;;;;8.73;2.60;;;17.20;99.90;;;;;;5051169;28;20208;-65
2021/03/28 10:46:54;;;;;;;5.97;1.80;;;17.40;99.90;;;;;;5049932;28;20179;-65
2021/03/28 10:49:42;;;;;;;12.37;2.00;;;16.90;99.90;;;;;;5051480;28;20167;-65
2021/03/28 10:52:41;;;;;;;9.73;2.50;;;16.90;99.90;;;;;;5031138;28;20171;-65
2021/03/28 10:55:46;;;;;;;6.90;2.63;;;17.00;99.90;;;;;;5035242;28;20206;-65
2021/03/28 10:58:49;;;;;;;5.40;2.10;;;17.60;99.90;;;;;;5051176;28;20643;-64
2021/03/28 11:01:45;;;;;;;8.17;2.57;;;17.70;99.90;;;;;;5050643;28;20190;-65
2021/03/28 11:04:19;;;;;;;6.17;2.03;;;17.40;99.90;;;;;;5050818;28;20271;-65
2021/03/28 11:07:20;;;;;;;6.87;2.57;;;17.20;99.90;;;;;;5050927;28;20174;-65
2021/03/28 11:09:57;;;;;;;7.80;1.90;;;17.40;99.90;;;;;;5050786;28;20182;-65
2021/03/28 11:13:02;;;;;;;6.87;2.77;;;17.30;99.90;;;;;;5031281;28;20168;-65
2021/03/28 11:15:42;;;;;;;3.20;1.60;;;16.90;99.90;;;;;;5015081;28;20205;-65
2021/03/28 11:18:31;;;;;;;9.83;2.67;;;16.50;99.90;;;;;;5028714;28;20532;-64
2021/03/28 11:21:01;;;;;;;4.80;2.00;;;16.20;99.90;;;;;;5043910;28;20194;-65
2021/03/28 11:23:43;;;;;;;5.57;2.67;;;15.80;99.90;;;;;;5051070;28;20201;-64
2021/03/28 11:26:33;;;;;;;9.10;2.40;;;16.10;99.90;;;;;;5050783;28;20209;-65
2021/03/28 11:29:33;;;;;;;5.60;2.00;;;16.70;99.90;;;;;;5050831;28;20163;-65
2021/03/28 11:32:09;;;;;;;4.60;1.90;;;17.30;99.90;;;;;;5050281;28;20257;-65
2021/03/28 11:34:58;;;;;;;6.20;2.10;;;17.80;99.90;;;;;;5050992;28;20222;-65
2021/03/28 11:37:45;;;;;;;6.33;3.20;;;18.00;99.90;;;;;;5051018;28;20244;-65
2021/03/28 11:40:38;;;;;;;7.83;1.80;;;18.10;99.90;;;;;;5050873;28;20183;-65
2021/03/28 11:43:04;;;;;;;6.93;2.67;;;18.00;99.90;;;;;;5054347;28;20179;-65
2021/03/28 11:45:38;;;;;;;6.40;1.92;;;18.30;99.90;;;;;;5054789;28;20206;-65
2021/03/28 11:48:30;;;;;;;6.93;2.17;;;18.70;99.90;;;;;;5054232;28;20166;-65
2021/03/28 11:51:12;;;;;;;6.32;2.10;;;19.00;99.90;;;;;;5054188;28;20182;-65
2021/03/28 11:53:39;;;;;;;4.78;2.15;;;19.30;99.90;;;;;;5054428;28;20202;-64
2021/03/28 11:56:45;;;;;;;2.93;1.63;;;19.20;99.90;;;;;;5054473;28;20178;-65
2021/03/28 11:59:19;;;;;;;7.20;2.23;;;19.10;99.90;;;;;;5054245;28;20186;-65
2021/03/28 12:01:54;;;;;;;6.53;2.17;;;19.00;99.90;;;;;;5054211;28;20175;-64
2021/03/28 12:04:24;;;;;;;6.70;2.10;;;19.10;99.90;;;;;;5053860;28;20202;-65
2021/03/28 12:07:07;;;;;;;8.43;2.10;;;19.40;99.90;;;;;;5054036;28;20534;-65
2021/03/28 12:09:33;;;;;;;5.45;1.98;;;19.20;99.90;;;;;;5054408;28;20170;-65
2021/03/28 12:12:14;;;;;;;5.67;1.83;;;18.60;99.90;;;;;;5053829;28;20468;-65
2021/03/28 12:14:40;;;;;;;4.60;2.07;;;18.50;99.90;;;;;;5054066;28;20656;-63
2021/03/28 12:17:09;;;;;;;4.53;2.00;;;18.80;99.90;;;;;;5053675;28;20178;-64
2021/03/28 12:20:12;;;;;;;7.72;2.30;;;18.90;99.90;;;;;;5054154;28;20175;-65
2021/03/28 12:22:37;;;;;;;6.13;1.75;;;18.90;99.90;;;;;;5053994;28;20178;-64
2021/03/28 12:25:19;;;;;;;7.47;2.53;;;19.00;99.90;;;;;;5053458;28;20207;-65
2021/03/28 12:27:55;;;;;;;6.18;2.28;;;19.20;99.90;;;;;;5054075;28;20174;-64
2021/03/28 12:30:29;;;;;;;3.38;1.98;;;18.90;99.90;;;;;;5053955;28;20186;-64
2021/03/28 12:33:04;;;;;;;5.33;1.57;;;18.80;99.90;;;;;;5053717;28;20181;-65
2021/03/28 12:35:46;;;;;;;4.93;1.80;;;18.30;99.90;;;;;;5053568;28;20225;-63
2021/03/28 12:38:35;;;;;;;3.07;1.90;;;17.70;99.90;;;;;;5053666;28;20202;-64
2021/03/28 12:41:14;;;;;;;7.40;2.43;;;17.30;99.90;;;;;;5049808;28;20841;-65
2021/03/28 12:43:44;;;;;;;3.67;1.93;;;17.40;99.90;;;;;;5053487;28;20194;-64
2021/03/28 12:46:27;;;;;;;4.10;1.90;;;17.30;99.90;;;;;;5053440;28;20202;-65
2021/03/28 12:49:19;;;;;;;4.27;1.70;;;17.50;99.90;;;;;;5053200;28;20179;-65
2021/03/28 12:51:49;;;;;;;5.07;2.63;;;17.90;99.90;;;;;;5049632;28;20186;-65
2021/03/28 12:54:24;;;;;;;5.60;2.07;;;18.00;99.90;;;;;;5053084;28;20209;-65
2021/03/28 12:56:52;;;;;;;8.73;2.30;;;18.50;99.90;;;;;;5053320;28;20206;-65
2021/03/28 12:59:47;;;;;;;3.93;1.90;;;18.70;99.90;;;;;;5052848;28;20187;-65
2021/03/28 13:02:18;;;;;;;5.40;2.73;;;18.70;99.90;;;;;;5047972;28;20195;-64
2021/03/28 13:04:53;;;;;;;3.77;1.90;;;18.30;99.90;;;;;;5052975;28;20289;-65
2021/03/28 13:07:42;;;;;;;14.17;2.23;;;17.80;99.90;;;;;;5053169;28;20167;-65
2021/03/28 13:10:20;;;;;;;7.73;2.70;;;17.60;99.90;;;;;;5052922;28;20696;-65
2021/03/28 13:12:51;;;;;;;7.20;2.53;;;17.50;99.90;;;;;;5052845;28;20178;-64
2021/03/28 13:15:26;;;;;;;5.23;3.03;;;17.60;99.90;;;;;;5052655;28;20531;-65
2021/03/28 13:18:21;;;;;;;5.03;2.10;;;17.70;99.90;;;;;;5052673;28;20703;-65
2021/03/28 13:21:09;;;;;;;5.37;2.47;;;18.00;99.90;;;;;;5052660;28;20248;-65
2021/03/28 13:23:47;;;;;;;4.13;1.83;;;18.30;99.90;;;;;;5048403;28;20707;-64
2021/03/28 13:26:26;;;;;;;2.67;1.83;;;18.20;99.90;;;;;;5052475;28;20210;-65
2021/03/28 13:29:21;;;;;;;9.97;2.37;;;18.00;99.90;;;;;;5052664;28;20516;-64
2021/03/28 13:31:58;;;;;;;6.30;2.17;;;18.10;99.90;;;;;;5052220;28;20245;-65
2021/03/28 13:34:27;;;;;;;7.13;2.40;;;18.40;99.90;;;;;;5052907;28;20195;-65
2021/03/28 13:37:05;;;;;;;4.87;2.17;;;18.50;99.90;;;;;;5052326;28;20194;-65
2021/03/28 13:39:41;;;;;;;6.00;2.20;;;18.30;99.90;;;;;;5052530;28;20175;-65
2021/03/28 13:42:34;;;;;;;7.53;2.63;;;18.50;99.90;;;;;;5052030;28;20516;-65
2021/03/28 13:45:05;;;;;;;5.93;2.40;;;18.80;99.90;;;;;;5051564;28;20569;-64
2021/03/28 13:47:58;;;;;;;6.87;1.87;;;18.60;99.90;;;;;;5052259;28;20533;-65
2021/03/28 13:50:42;;;;;;;6.43;2.07;;;18.30;99.90;;;;;;5050898;28;20662;-64
2021/03/28 13:53:22;;;;;;;10.07;2.13;;;18.20;99.90;;;;;;5031954;28;20258;-65
2021/03/28 13:56:02;;;;;;;3.63;2.00;;;18.40;99.90;;;;;;5033658;28;20199;-64
2021/03/28 13:58:32;;;;;;;7.83;2.43;;;18.50;99.90;;;;;;5052199;28;20181;-64
2021/03/28 14:01:24;;;;;;;4.87;2.30;;;18.50;99.90;;;;;;5031648;28;20172;-63
2021/03/28 14:03:57;;;;;;;6.10;2.00;;;18.50;99.90;;;;;;5033497;28;20215;-65
2021/03/28 14:06:35;;;;;;;7.47;2.70;;;18.40;99.90;;;;;;5051962;28;20186;-64
2021/03/28 14:09:04;;;;;;;5.40;2.03;;;18.40;99.90;;;;;;5051310;28;20175;-65
2021/03/28 14:11:38;;;;;;;5.27;2.40;;;18.40;99.90;;;;;;5051806;28;20257;-65
2021/03/28 14:14:15;;;;;;;5.90;1.83;;;18.10;99.90;;;;;;5050326;28;20201;-64
2021/03/28 14:16:43;;;;;;;4.73;1.97;;;18.00;99.90;;;;;;5052105;28;20178;-64
2021/03/28 14:19:35;;;;;;;8.07;2.23;;;17.80;99.90;;;;;;5051340;28;20648;-64
2021/03/28 14:22:50;;;;;;;3.97;1.60;;;17.60;99.90;;;;;;5051707;28;20190;-64
2021/03/28 14:25:33;;;;;;;7.23;2.03;;;17.30;99.90;;;;;;5048281;28;20280;-64